sensor_id;sensor_type;location;lat;lon;timestamp;P1;durP1;ratioP1;P2;durP2;ratioP2
11084;SDS011;5596;46.826;8.650;2023-02-28T00:00:31;9.23;;;6.47;;
11084;SDS011;5596;46.826;8.650;2023-02-28T00:02:58;9.17;;;5.63;;
11084;SDS011;5596;46.826;8.650;2023-02-28T00:05:25;8.73;;;6.30;;
11084;SDS011;5596;46.826;8.650;2023-02-28T00:07:52;9.77;;;6.20;;
11084;SDS011;5596;46.826;8.650;2023-02-28T00:10:20;7.10;;;5.83;;
11084;SDS011;5596;46.826;8.650;2023-02-28T00:12:50;8.60;;;6.80;;
11084;SDS011;5596;46.826;8.650;2023-02-28T00:15:16;10.17;;;6.67;;
11084;SDS011;5596;46.826;8.650;2023-02-28T00:17:43;8.43;;;6.40;;
11084;SDS011;5596;46.826;8.650;2023-02-28T00:20:10;8.50;;;6.03;;
11084;SDS011;5596;46.826;8.650;2023-02-28T00:22:39;8.63;;;6.80;;
11084;SDS011;5596;46.826;8.650;2023-02-28T00:25:06;7.20;;;5.83;;
11084;SDS011;5596;46.826;8.650;2023-02-28T00:27:33;9.17;;;6.20;;
11084;SDS011;5596;46.826;8.650;2023-02-28T00:30:01;8.67;;;6.57;;
11084;SDS011;5596;46.826;8.650;2023-02-28T00:32:29;8.90;;;6.23;;
11084;SDS011;5596;46.826;8.650;2023-02-28T00:34:56;9.17;;;6.70;;
11084;SDS011;5596;46.826;8.650;2023-02-28T00:37:22;9.80;;;6.13;;
11084;SDS011;5596;46.826;8.650;2023-02-28T00:39:49;9.37;;;6.70;;
11084;SDS011;5596;46.826;8.650;2023-02-28T00:42:16;8.60;;;6.53;;
11084;SDS011;5596;46.826;8.650;2023-02-28T00:44:43;10.07;;;7.10;;
11084;SDS011;5596;46.826;8.650;2023-02-28T00:47:12;9.00;;;6.80;;
11084;SDS011;5596;46.826;8.650;2023-02-28T00:49:38;9.67;;;7.17;;
11084;SDS011;5596;46.826;8.650;2023-02-28T00:52:05;7.43;;;5.53;;
11084;SDS011;5596;46.826;8.650;2023-02-28T00:54:32;10.80;;;7.07;;
11084;SDS011;5596;46.826;8.650;2023-02-28T00:56:59;7.20;;;6.23;;
11084;SDS011;5596;46.826;8.650;2023-02-28T00:59:26;8.37;;;6.50;;
11084;SDS011;5596;46.826;8.650;2023-02-28T01:01:53;8.80;;;6.77;;
11084;SDS011;5596;46.826;8.650;2023-02-28T01:04:22;13.00;;;7.23;;
11084;SDS011;5596;46.826;8.650;2023-02-28T01:06:49;11.03;;;7.00;;
11084;SDS011;5596;46.826;8.650;2023-02-28T01:09:15;9.13;;;7.03;;
11084;SDS011;5596;46.826;8.650;2023-02-28T01:11:42;9.13;;;6.40;;
11084;SDS011;5596;46.826;8.650;2023-02-28T01:14:11;8.57;;;6.47;;
11084;SDS011;5596;46.826;8.650;2023-02-28T01:16:38;9.57;;;6.97;;
11084;SDS011;5596;46.826;8.650;2023-02-28T01:19:05;9.60;;;6.80;;
11084;SDS011;5596;46.826;8.650;2023-02-28T01:21:33;9.33;;;6.87;;
11084;SDS011;5596;46.826;8.650;2023-02-28T01:24:01;10.07;;;6.97;;
11084;SDS011;5596;46.826;8.650;2023-02-28T01:26:28;8.43;;;6.30;;
11084;SDS011;5596;46.826;8.650;2023-02-28T01:28:55;11.37;;;7.07;;
11084;SDS011;5596;46.826;8.650;2023-02-28T01:31:22;10.40;;;6.90;;
11084;SDS011;5596;46.826;8.650;2023-02-28T01:33:49;9.33;;;7.17;;
11084;SDS011;5596;46.826;8.650;2023-02-28T01:36:17;10.57;;;7.07;;
11084;SDS011;5596;46.826;8.650;2023-02-28T01:38:45;9.23;;;6.73;;
11084;SDS011;5596;46.826;8.650;2023-02-28T01:41:14;9.80;;;7.50;;
11084;SDS011;5596;46.826;8.650;2023-02-28T01:43:55;9.60;;;6.40;;
11084;SDS011;5596;46.826;8.650;2023-02-28T01:46:22;8.93;;;6.93;;
11084;SDS011;5596;46.826;8.650;2023-02-28T01:48:49;11.70;;;7.23;;
11084;SDS011;5596;46.826;8.650;2023-02-28T01:51:18;9.27;;;7.33;;
11084;SDS011;5596;46.826;8.650;2023-02-28T01:53:49;10.73;;;7.10;;
11084;SDS011;5596;46.826;8.650;2023-02-28T01:56:19;12.67;;;7.30;;
11084;SDS011;5596;46.826;8.650;2023-02-28T01:58:48;10.70;;;7.27;;
11084;SDS011;5596;46.826;8.650;2023-02-28T02:01:15;10.40;;;7.07;;
11084;SDS011;5596;46.826;8.650;2023-02-28T02:03:46;10.90;;;7.40;;
11084;SDS011;5596;46.826;8.650;2023-02-28T02:06:13;9.07;;;7.20;;
11084;SDS011;5596;46.826;8.650;2023-02-28T02:08:40;11.73;;;7.30;;
11084;SDS011;5596;46.826;8.650;2023-02-28T02:11:08;10.57;;;7.30;;
11084;SDS011;5596;46.826;8.650;2023-02-28T02:13:49;11.20;;;7.43;;
11084;SDS011;5596;46.826;8.650;2023-02-28T02:16:27;11.17;;;7.77;;
11084;SDS011;5596;46.826;8.650;2023-02-28T02:19:00;14.10;;;7.77;;
11084;SDS011;5596;46.826;8.650;2023-02-28T02:21:40;9.80;;;6.73;;
11084;SDS011;5596;46.826;8.650;2023-02-28T02:35:26;10.70;;;7.53;;
11084;SDS011;5596;46.826;8.650;2023-02-28T02:37:59;14.30;;;7.77;;
11084;SDS011;5596;46.826;8.650;2023-02-28T02:40:30;10.30;;;7.20;;
11084;SDS011;5596;46.826;8.650;2023-02-28T02:43:01;11.53;;;7.80;;
11084;SDS011;5596;46.826;8.650;2023-02-28T02:45:29;12.43;;;7.70;;
11084;SDS011;5596;46.826;8.650;2023-02-28T02:48:01;13.00;;;8.40;;
11084;SDS011;5596;46.826;8.650;2023-02-28T02:50:30;11.50;;;7.83;;
11084;SDS011;5596;46.826;8.650;2023-02-28T02:53:00;10.77;;;7.77;;
11084;SDS011;5596;46.826;8.650;2023-02-28T02:55:28;12.03;;;8.37;;
11084;SDS011;5596;46.826;8.650;2023-02-28T02:57:57;11.17;;;7.77;;
11084;SDS011;5596;46.826;8.650;2023-02-28T03:00:26;8.83;;;7.23;;
11084;SDS011;5596;46.826;8.650;2023-02-28T03:02:54;11.10;;;7.60;;
11084;SDS011;5596;46.826;8.650;2023-02-28T03:05:21;12.97;;;7.70;;
11084;SDS011;5596;46.826;8.650;2023-02-28T03:07:51;12.77;;;7.73;;
11084;SDS011;5596;46.826;8.650;2023-02-28T03:10:28;12.13;;;8.30;;
11084;SDS011;5596;46.826;8.650;2023-02-28T03:12:59;9.97;;;8.03;;
11084;SDS011;5596;46.826;8.650;2023-02-28T03:15:29;13.37;;;9.03;;
11084;SDS011;5596;46.826;8.650;2023-02-28T03:18:01;13.13;;;9.00;;
11084;SDS011;5596;46.826;8.650;2023-02-28T03:20:34;14.57;;;9.07;;
11084;SDS011;5596;46.826;8.650;2023-02-28T03:23:05;13.20;;;8.37;;
11084;SDS011;5596;46.826;8.650;2023-02-28T03:25:36;10.93;;;8.07;;
11084;SDS011;5596;46.826;8.650;2023-02-28T03:28:05;15.00;;;8.67;;
11084;SDS011;5596;46.826;8.650;2023-02-28T03:30:36;10.93;;;7.73;;
11084;SDS011;5596;46.826;8.650;2023-02-28T03:33:07;12.47;;;8.50;;
11084;SDS011;5596;46.826;8.650;2023-02-28T03:35:36;12.10;;;8.20;;
11084;SDS011;5596;46.826;8.650;2023-02-28T03:38:06;12.17;;;8.30;;
11084;SDS011;5596;46.826;8.650;2023-02-28T03:40:35;11.97;;;8.63;;
11084;SDS011;5596;46.826;8.650;2023-02-28T03:43:10;10.03;;;7.93;;
11084;SDS011;5596;46.826;8.650;2023-02-28T03:45:39;10.87;;;8.10;;
11084;SDS011;5596;46.826;8.650;2023-02-28T03:48:07;13.63;;;8.80;;
11084;SDS011;5596;46.826;8.650;2023-02-28T03:50:37;10.70;;;8.10;;
11084;SDS011;5596;46.826;8.650;2023-02-28T03:53:06;12.07;;;8.73;;
11084;SDS011;5596;46.826;8.650;2023-02-28T03:55:37;12.27;;;8.67;;
11084;SDS011;5596;46.826;8.650;2023-02-28T03:58:05;14.23;;;9.50;;
11084;SDS011;5596;46.826;8.650;2023-02-28T04:00:34;12.77;;;8.90;;
11084;SDS011;5596;46.826;8.650;2023-02-28T04:03:01;11.47;;;8.13;;
11084;SDS011;5596;46.826;8.650;2023-02-28T04:05:29;12.73;;;8.40;;
11084;SDS011;5596;46.826;8.650;2023-02-28T04:08:03;14.07;;;8.53;;
11084;SDS011;5596;46.826;8.650;2023-02-28T04:10:31;11.17;;;8.43;;
11084;SDS011;5596;46.826;8.650;2023-02-28T04:12:58;13.03;;;9.30;;
11084;SDS011;5596;46.826;8.650;2023-02-28T04:15:24;16.67;;;9.27;;
11084;SDS011;5596;46.826;8.650;2023-02-28T04:17:52;13.60;;;9.00;;
11084;SDS011;5596;46.826;8.650;2023-02-28T04:20:19;11.33;;;8.67;;
11084;SDS011;5596;46.826;8.650;2023-02-28T04:22:46;15.60;;;9.47;;
11084;SDS011;5596;46.826;8.650;2023-02-28T04:25:12;12.73;;;9.13;;
11084;SDS011;5596;46.826;8.650;2023-02-28T04:27:40;13.23;;;9.03;;
11084;SDS011;5596;46.826;8.650;2023-02-28T04:30:11;19.23;;;10.93;;
11084;SDS011;5596;46.826;8.650;2023-02-28T04:32:38;14.70;;;9.17;;
11084;SDS011;5596;46.826;8.650;2023-02-28T04:35:05;12.30;;;8.83;;
11084;SDS011;5596;46.826;8.650;2023-02-28T04:37:32;16.87;;;9.67;;
11084;SDS011;5596;46.826;8.650;2023-02-28T04:40:00;429.77;;;320.17;;
11084;SDS011;5596;46.826;8.650;2023-02-28T04:42:27;582.53;;;352.57;;
11084;SDS011;5596;46.826;8.650;2023-02-28T04:45:02;255.27;;;213.57;;
11084;SDS011;5596;46.826;8.650;2023-02-28T04:47:29;268.07;;;239.37;;
11084;SDS011;5596;46.826;8.650;2023-02-28T04:49:55;310.83;;;241.50;;
11084;SDS011;5596;46.826;8.650;2023-02-28T04:52:22;237.20;;;158.70;;
11084;SDS011;5596;46.826;8.650;2023-02-28T04:54:49;516.07;;;315.63;;
11084;SDS011;5596;46.826;8.650;2023-02-28T04:57:15;185.67;;;113.53;;
11084;SDS011;5596;46.826;8.650;2023-02-28T04:59:42;395.30;;;247.00;;
11084;SDS011;5596;46.826;8.650;2023-02-28T05:02:10;14.07;;;8.73;;
11084;SDS011;5596;46.826;8.650;2023-02-28T05:04:37;207.83;;;120.60;;
11084;SDS011;5596;46.826;8.650;2023-02-28T05:07:04;520.70;;;456.53;;
11084;SDS011;5596;46.826;8.650;2023-02-28T05:09:30;21.70;;;14.67;;
11084;SDS011;5596;46.826;8.650;2023-02-28T05:11:58;117.23;;;59.87;;
11084;SDS011;5596;46.826;8.650;2023-02-28T05:14:25;603.00;;;537.17;;
11084;SDS011;5596;46.826;8.650;2023-02-28T05:16:51;508.13;;;406.10;;
11084;SDS011;5596;46.826;8.650;2023-02-28T05:19:20;241.17;;;196.30;;
11084;SDS011;5596;46.826;8.650;2023-02-28T05:21:51;419.60;;;320.03;;
11084;SDS011;5596;46.826;8.650;2023-02-28T05:24:18;534.27;;;421.20;;
11084;SDS011;5596;46.826;8.650;2023-02-28T05:26:48;752.97;;;681.33;;
11084;SDS011;5596;46.826;8.650;2023-02-28T05:29:15;500.17;;;408.17;;
11084;SDS011;5596;46.826;8.650;2023-02-28T05:31:41;210.30;;;183.50;;
11084;SDS011;5596;46.826;8.650;2023-02-28T05:34:08;356.20;;;316.87;;
11084;SDS011;5596;46.826;8.650;2023-02-28T05:36:37;12.50;;;8.23;;
11084;SDS011;5596;46.826;8.650;2023-02-28T05:39:05;28.53;;;22.10;;
11084;SDS011;5596;46.826;8.650;2023-02-28T05:41:32;12.60;;;8.13;;
11084;SDS011;5596;46.826;8.650;2023-02-28T05:43:59;12.83;;;9.33;;
11084;SDS011;5596;46.826;8.650;2023-02-28T05:46:26;48.97;;;26.97;;
11084;SDS011;5596;46.826;8.650;2023-02-28T05:48:53;38.67;;;17.47;;
11084;SDS011;5596;46.826;8.650;2023-02-28T05:51:20;52.77;;;31.23;;
11084;SDS011;5596;46.826;8.650;2023-02-28T05:53:49;163.80;;;113.30;;
11084;SDS011;5596;46.826;8.650;2023-02-28T05:56:15;13.23;;;8.90;;
11084;SDS011;5596;46.826;8.650;2023-02-28T05:58:42;12.63;;;8.63;;
11084;SDS011;5596;46.826;8.650;2023-02-28T06:01:19;135.13;;;100.97;;
11084;SDS011;5596;46.826;8.650;2023-02-28T06:03:46;12.17;;;8.17;;
11084;SDS011;5596;46.826;8.650;2023-02-28T06:06:13;22.67;;;13.70;;
11084;SDS011;5596;46.826;8.650;2023-02-28T06:08:39;82.30;;;58.90;;
11084;SDS011;5596;46.826;8.650;2023-02-28T06:11:09;12.63;;;8.60;;
11084;SDS011;5596;46.826;8.650;2023-02-28T06:13:36;13.53;;;8.77;;
11084;SDS011;5596;46.826;8.650;2023-02-28T06:16:03;14.60;;;9.23;;
11084;SDS011;5596;46.826;8.650;2023-02-28T06:18:30;12.73;;;9.37;;
11084;SDS011;5596;46.826;8.650;2023-02-28T06:20:56;15.87;;;9.63;;
11084;SDS011;5596;46.826;8.650;2023-02-28T06:23:23;13.40;;;9.40;;
11084;SDS011;5596;46.826;8.650;2023-02-28T06:25:50;14.67;;;9.60;;
11084;SDS011;5596;46.826;8.650;2023-02-28T06:28:19;14.13;;;9.30;;
11084;SDS011;5596;46.826;8.650;2023-02-28T06:30:46;18.00;;;10.07;;
11084;SDS011;5596;46.826;8.650;2023-02-28T06:33:13;15.03;;;9.17;;
11084;SDS011;5596;46.826;8.650;2023-02-28T06:35:39;16.57;;;9.57;;
11084;SDS011;5596;46.826;8.650;2023-02-28T06:38:06;20.53;;;10.13;;
11084;SDS011;5596;46.826;8.650;2023-02-28T06:40:33;18.23;;;9.73;;
11084;SDS011;5596;46.826;8.650;2023-02-28T06:43:01;16.70;;;9.23;;
11084;SDS011;5596;46.826;8.650;2023-02-28T06:45:29;14.90;;;9.50;;
11084;SDS011;5596;46.826;8.650;2023-02-28T06:47:56;18.03;;;10.23;;
11084;SDS011;5596;46.826;8.650;2023-02-28T06:50:23;15.77;;;9.97;;
11084;SDS011;5596;46.826;8.650;2023-02-28T06:52:50;12.83;;;8.73;;
11084;SDS011;5596;46.826;8.650;2023-02-28T06:55:19;17.00;;;10.10;;
11084;SDS011;5596;46.826;8.650;2023-02-28T06:57:46;15.20;;;10.17;;
11084;SDS011;5596;46.826;8.650;2023-02-28T07:00:13;16.73;;;10.23;;
11084;SDS011;5596;46.826;8.650;2023-02-28T07:02:42;15.23;;;9.83;;
11084;SDS011;5596;46.826;8.650;2023-02-28T07:05:08;13.50;;;9.20;;
11084;SDS011;5596;46.826;8.650;2023-02-28T07:07:35;16.60;;;9.77;;
11084;SDS011;5596;46.826;8.650;2023-02-28T07:10:04;16.00;;;9.33;;
11084;SDS011;5596;46.826;8.650;2023-02-28T07:12:31;17.00;;;10.30;;
11084;SDS011;5596;46.826;8.650;2023-02-28T07:14:57;16.10;;;9.60;;
11084;SDS011;5596;46.826;8.650;2023-02-28T07:17:24;14.27;;;8.73;;
11084;SDS011;5596;46.826;8.650;2023-02-28T07:19:52;14.50;;;9.43;;
11084;SDS011;5596;46.826;8.650;2023-02-28T07:22:19;16.20;;;9.90;;
11084;SDS011;5596;46.826;8.650;2023-02-28T07:24:46;13.40;;;8.87;;
11084;SDS011;5596;46.826;8.650;2023-02-28T07:27:12;13.13;;;9.00;;
11084;SDS011;5596;46.826;8.650;2023-02-28T07:29:51;13.13;;;9.00;;
11084;SDS011;5596;46.826;8.650;2023-02-28T07:32:18;14.70;;;9.57;;
11084;SDS011;5596;46.826;8.650;2023-02-28T07:34:44;13.90;;;9.63;;
11084;SDS011;5596;46.826;8.650;2023-02-28T07:37:13;14.97;;;9.70;;
11084;SDS011;5596;46.826;8.650;2023-02-28T07:39:39;15.27;;;9.43;;
11084;SDS011;5596;46.826;8.650;2023-02-28T07:42:10;13.77;;;9.20;;
11084;SDS011;5596;46.826;8.650;2023-02-28T07:44:38;14.03;;;9.80;;
11084;SDS011;5596;46.826;8.650;2023-02-28T07:47:06;14.87;;;9.20;;
11084;SDS011;5596;46.826;8.650;2023-02-28T07:49:34;15.13;;;9.47;;
11084;SDS011;5596;46.826;8.650;2023-02-28T07:52:00;14.57;;;9.93;;
11084;SDS011;5596;46.826;8.650;2023-02-28T07:54:29;16.10;;;10.10;;
11084;SDS011;5596;46.826;8.650;2023-02-28T07:56:56;17.93;;;10.60;;
11084;SDS011;5596;46.826;8.650;2023-02-28T07:59:22;16.53;;;10.07;;
11084;SDS011;5596;46.826;8.650;2023-02-28T08:01:50;14.33;;;9.67;;
11084;SDS011;5596;46.826;8.650;2023-02-28T08:04:17;14.33;;;9.63;;
11084;SDS011;5596;46.826;8.650;2023-02-28T08:06:44;15.37;;;9.93;;
11084;SDS011;5596;46.826;8.650;2023-02-28T08:09:10;14.23;;;9.63;;
11084;SDS011;5596;46.826;8.650;2023-02-28T08:11:39;15.80;;;9.87;;
11084;SDS011;5596;46.826;8.650;2023-02-28T08:14:05;18.40;;;9.93;;
11084;SDS011;5596;46.826;8.650;2023-02-28T08:16:32;15.87;;;10.03;;
11084;SDS011;5596;46.826;8.650;2023-02-28T08:18:59;16.77;;;10.57;;
11084;SDS011;5596;46.826;8.650;2023-02-28T08:21:26;16.30;;;10.30;;
11084;SDS011;5596;46.826;8.650;2023-02-28T08:23:52;13.73;;;9.43;;
11084;SDS011;5596;46.826;8.650;2023-02-28T08:26:19;15.07;;;10.17;;
11084;SDS011;5596;46.826;8.650;2023-02-28T08:28:48;14.10;;;9.93;;
11084;SDS011;5596;46.826;8.650;2023-02-28T08:31:15;19.13;;;10.13;;
11084;SDS011;5596;46.826;8.650;2023-02-28T08:33:42;13.67;;;9.70;;
11084;SDS011;5596;46.826;8.650;2023-02-28T08:36:10;15.73;;;10.27;;
11084;SDS011;5596;46.826;8.650;2023-02-28T08:38:36;14.93;;;9.93;;
11084;SDS011;5596;46.826;8.650;2023-02-28T08:41:05;14.83;;;10.37;;
11084;SDS011;5596;46.826;8.650;2023-02-28T08:43:32;16.70;;;9.50;;
11084;SDS011;5596;46.826;8.650;2023-02-28T08:46:01;14.77;;;9.80;;
11084;SDS011;5596;46.826;8.650;2023-02-28T08:48:29;14.27;;;9.90;;
11084;SDS011;5596;46.826;8.650;2023-02-28T08:50:57;18.97;;;10.10;;
11084;SDS011;5596;46.826;8.650;2023-02-28T08:53:24;19.07;;;10.17;;
11084;SDS011;5596;46.826;8.650;2023-02-28T08:55:57;15.50;;;9.83;;
11084;SDS011;5596;46.826;8.650;2023-02-28T08:58:24;18.07;;;10.77;;
11084;SDS011;5596;46.826;8.650;2023-02-28T09:00:54;14.43;;;10.07;;
11084;SDS011;5596;46.826;8.650;2023-02-28T09:03:23;14.70;;;10.30;;
11084;SDS011;5596;46.826;8.650;2023-02-28T09:05:53;16.50;;;10.50;;
11084;SDS011;5596;46.826;8.650;2023-02-28T09:08:20;16.33;;;10.00;;
11084;SDS011;5596;46.826;8.650;2023-02-28T09:10:47;14.13;;;10.17;;
11084;SDS011;5596;46.826;8.650;2023-02-28T09:13:14;14.90;;;9.87;;
11084;SDS011;5596;46.826;8.650;2023-02-28T09:15:40;15.20;;;9.97;;
11084;SDS011;5596;46.826;8.650;2023-02-28T09:18:07;13.27;;;9.87;;
11084;SDS011;5596;46.826;8.650;2023-02-28T09:20:35;14.60;;;10.37;;
11084;SDS011;5596;46.826;8.650;2023-02-28T09:23:03;14.70;;;10.13;;
11084;SDS011;5596;46.826;8.650;2023-02-28T09:25:30;19.90;;;10.30;;
11084;SDS011;5596;46.826;8.650;2023-02-28T09:27:57;14.23;;;9.47;;
11084;SDS011;5596;46.826;8.650;2023-02-28T09:30:23;13.47;;;9.47;;
11084;SDS011;5596;46.826;8.650;2023-02-28T09:32:50;14.80;;;10.07;;
11084;SDS011;5596;46.826;8.650;2023-02-28T09:35:18;14.03;;;9.50;;
11084;SDS011;5596;46.826;8.650;2023-02-28T09:37:47;17.47;;;9.70;;
11084;SDS011;5596;46.826;8.650;2023-02-28T09:40:14;13.60;;;9.90;;
11084;SDS011;5596;46.826;8.650;2023-02-28T09:42:44;17.27;;;10.73;;
11084;SDS011;5596;46.826;8.650;2023-02-28T09:45:22;17.53;;;10.03;;
11084;SDS011;5596;46.826;8.650;2023-02-28T09:47:51;14.40;;;9.73;;
11084;SDS011;5596;46.826;8.650;2023-02-28T09:50:23;15.40;;;10.03;;
11084;SDS011;5596;46.826;8.650;2023-02-28T09:52:58;14.43;;;9.90;;
11084;SDS011;5596;46.826;8.650;2023-02-28T09:55:26;13.03;;;9.30;;
11084;SDS011;5596;46.826;8.650;2023-02-28T09:57:55;13.07;;;9.57;;
11084;SDS011;5596;46.826;8.650;2023-02-28T10:00:27;13.70;;;8.80;;
11084;SDS011;5596;46.826;8.650;2023-02-28T10:05:41;15.23;;;9.93;;
11084;SDS011;5596;46.826;8.650;2023-02-28T10:08:13;15.20;;;10.87;;
11084;SDS011;5596;46.826;8.650;2023-02-28T10:10:41;15.67;;;10.57;;
11084;SDS011;5596;46.826;8.650;2023-02-28T10:13:20;14.40;;;9.60;;
11084;SDS011;5596;46.826;8.650;2023-02-28T10:15:50;15.77;;;9.87;;
11084;SDS011;5596;46.826;8.650;2023-02-28T10:18:20;15.40;;;9.93;;
11084;SDS011;5596;46.826;8.650;2023-02-28T10:20:47;12.97;;;9.73;;
11084;SDS011;5596;46.826;8.650;2023-02-28T10:23:19;15.33;;;10.23;;
11084;SDS011;5596;46.826;8.650;2023-02-28T10:25:48;14.53;;;10.03;;
11084;SDS011;5596;46.826;8.650;2023-02-28T10:28:19;18.10;;;10.80;;
11084;SDS011;5596;46.826;8.650;2023-02-28T10:30:46;13.57;;;9.53;;
11084;SDS011;5596;46.826;8.650;2023-02-28T10:33:19;13.60;;;9.77;;
11084;SDS011;5596;46.826;8.650;2023-02-28T10:35:46;14.53;;;9.80;;
11084;SDS011;5596;46.826;8.650;2023-02-28T10:38:15;14.10;;;9.87;;
11084;SDS011;5596;46.826;8.650;2023-02-28T10:40:43;14.57;;;9.80;;
11084;SDS011;5596;46.826;8.650;2023-02-28T10:43:17;13.43;;;9.50;;
11084;SDS011;5596;46.826;8.650;2023-02-28T10:45:52;15.13;;;9.47;;
11084;SDS011;5596;46.826;8.650;2023-02-28T10:48:27;14.73;;;10.43;;
11084;SDS011;5596;46.826;8.650;2023-02-28T10:50:55;13.13;;;9.63;;
11084;SDS011;5596;46.826;8.650;2023-02-28T10:53:28;15.30;;;9.67;;
11084;SDS011;5596;46.826;8.650;2023-02-28T10:55:59;11.90;;;9.27;;
11084;SDS011;5596;46.826;8.650;2023-02-28T10:58:27;13.67;;;9.47;;
11084;SDS011;5596;46.826;8.650;2023-02-28T11:00:54;13.83;;;9.80;;
11084;SDS011;5596;46.826;8.650;2023-02-28T11:03:28;13.63;;;9.93;;
11084;SDS011;5596;46.826;8.650;2023-02-28T11:05:58;13.97;;;9.13;;
11084;SDS011;5596;46.826;8.650;2023-02-28T11:08:25;14.00;;;9.10;;
11084;SDS011;5596;46.826;8.650;2023-02-28T11:10:55;16.60;;;9.37;;
11084;SDS011;5596;46.826;8.650;2023-02-28T11:13:26;14.40;;;9.00;;
11084;SDS011;5596;46.826;8.650;2023-02-28T11:15:54;12.10;;;9.30;;
11084;SDS011;5596;46.826;8.650;2023-02-28T11:18:22;13.07;;;9.43;;
11084;SDS011;5596;46.826;8.650;2023-02-28T11:20:51;13.87;;;9.33;;
11084;SDS011;5596;46.826;8.650;2023-02-28T11:23:19;13.27;;;8.77;;
11084;SDS011;5596;46.826;8.650;2023-02-28T11:25:47;12.30;;;8.67;;
11084;SDS011;5596;46.826;8.650;2023-02-28T11:28:23;12.07;;;9.30;;
11084;SDS011;5596;46.826;8.650;2023-02-28T11:31:01;12.13;;;8.57;;
11084;SDS011;5596;46.826;8.650;2023-02-28T11:33:29;13.90;;;9.07;;
11084;SDS011;5596;46.826;8.650;2023-02-28T11:35:57;14.60;;;9.50;;
11084;SDS011;5596;46.826;8.650;2023-02-28T11:38:25;12.00;;;8.77;;
11084;SDS011;5596;46.826;8.650;2023-02-28T11:40:56;14.47;;;9.13;;
11084;SDS011;5596;46.826;8.650;2023-02-28T11:43:34;15.57;;;8.73;;
11084;SDS011;5596;46.826;8.650;2023-02-28T11:46:14;13.57;;;9.17;;
11084;SDS011;5596;46.826;8.650;2023-02-28T11:48:47;13.00;;;9.30;;
11084;SDS011;5596;46.826;8.650;2023-02-28T11:51:20;12.40;;;8.97;;
11084;SDS011;5596;46.826;8.650;2023-02-28T11:54:01;13.77;;;9.50;;
11084;SDS011;5596;46.826;8.650;2023-02-28T11:56:36;12.17;;;9.23;;
11084;SDS011;5596;46.826;8.650;2023-02-28T11:59:08;11.97;;;8.70;;
11084;SDS011;5596;46.826;8.650;2023-02-28T12:01:42;11.63;;;9.17;;
11084;SDS011;5596;46.826;8.650;2023-02-28T12:04:12;13.10;;;10.50;;
11084;SDS011;5596;46.826;8.650;2023-02-28T12:06:43;11.23;;;8.93;;
11084;SDS011;5596;46.826;8.650;2023-02-28T12:09:15;12.43;;;9.27;;
11084;SDS011;5596;46.826;8.650;2023-02-28T12:11:48;13.77;;;9.27;;
11084;SDS011;5596;46.826;8.650;2023-02-28T12:17:05;12.13;;;9.23;;
11084;SDS011;5596;46.826;8.650;2023-02-28T12:19:38;12.70;;;9.27;;
11084;SDS011;5596;46.826;8.650;2023-02-28T12:22:11;13.60;;;9.77;;
11084;SDS011;5596;46.826;8.650;2023-02-28T12:24:44;12.90;;;9.50;;
11084;SDS011;5596;46.826;8.650;2023-02-28T12:27:15;11.67;;;9.00;;
11084;SDS011;5596;46.826;8.650;2023-02-28T12:29:44;12.93;;;9.73;;
11084;SDS011;5596;46.826;8.650;2023-02-28T12:32:15;13.43;;;9.27;;
11084;SDS011;5596;46.826;8.650;2023-02-28T12:34:44;12.73;;;9.03;;
11084;SDS011;5596;46.826;8.650;2023-02-28T12:37:13;11.23;;;9.30;;
11084;SDS011;5596;46.826;8.650;2023-02-28T12:39:41;12.50;;;9.23;;
11084;SDS011;5596;46.826;8.650;2023-02-28T12:42:10;14.40;;;9.37;;
11084;SDS011;5596;46.826;8.650;2023-02-28T12:44:40;12.03;;;8.90;;
11084;SDS011;5596;46.826;8.650;2023-02-28T12:47:10;13.93;;;9.97;;
11084;SDS011;5596;46.826;8.650;2023-02-28T12:49:41;13.33;;;9.00;;
11084;SDS011;5596;46.826;8.650;2023-02-28T12:52:11;12.47;;;9.00;;
11084;SDS011;5596;46.826;8.650;2023-02-28T12:54:43;12.93;;;9.80;;
11084;SDS011;5596;46.826;8.650;2023-02-28T12:57:12;13.67;;;9.70;;
11084;SDS011;5596;46.826;8.650;2023-02-28T12:59:40;14.40;;;9.77;;
11084;SDS011;5596;46.826;8.650;2023-02-28T13:07:49;13.40;;;9.53;;
11084;SDS011;5596;46.826;8.650;2023-02-28T13:10:22;13.83;;;9.37;;
11084;SDS011;5596;46.826;8.650;2023-02-28T13:12:49;13.53;;;9.23;;
11084;SDS011;5596;46.826;8.650;2023-02-28T13:15:18;14.23;;;9.20;;
11084;SDS011;5596;46.826;8.650;2023-02-28T13:17:48;12.13;;;9.00;;
11084;SDS011;5596;46.826;8.650;2023-02-28T13:20:16;11.90;;;9.20;;
11084;SDS011;5596;46.826;8.650;2023-02-28T13:22:43;12.70;;;9.60;;
11084;SDS011;5596;46.826;8.650;2023-02-28T13:27:57;11.93;;;9.23;;
11084;SDS011;5596;46.826;8.650;2023-02-28T13:33:20;12.33;;;8.60;;
11084;SDS011;5596;46.826;8.650;2023-02-28T13:35:48;13.07;;;9.60;;
11084;SDS011;5596;46.826;8.650;2023-02-28T13:38:16;12.90;;;9.73;;
11084;SDS011;5596;46.826;8.650;2023-02-28T13:40:43;11.77;;;8.50;;
11084;SDS011;5596;46.826;8.650;2023-02-28T13:43:12;12.93;;;8.73;;
11084;SDS011;5596;46.826;8.650;2023-02-28T13:45:54;12.40;;;9.30;;
11084;SDS011;5596;46.826;8.650;2023-02-28T13:48:30;13.07;;;9.63;;
11084;SDS011;5596;46.826;8.650;2023-02-28T13:50:57;13.40;;;9.40;;
11084;SDS011;5596;46.826;8.650;2023-02-28T13:53:33;14.03;;;9.37;;
11084;SDS011;5596;46.826;8.650;2023-02-28T13:56:07;14.47;;;9.57;;
11084;SDS011;5596;46.826;8.650;2023-02-28T13:58:41;13.13;;;9.20;;
11084;SDS011;5596;46.826;8.650;2023-02-28T14:06:48;13.93;;;9.30;;
11084;SDS011;5596;46.826;8.650;2023-02-28T14:09:18;13.17;;;9.77;;
11084;SDS011;5596;46.826;8.650;2023-02-28T14:11:48;12.80;;;9.60;;
11084;SDS011;5596;46.826;8.650;2023-02-28T14:16:58;12.93;;;9.30;;
11084;SDS011;5596;46.826;8.650;2023-02-28T14:19:26;13.23;;;8.57;;
11084;SDS011;5596;46.826;8.650;2023-02-28T14:21:59;13.77;;;9.37;;
11084;SDS011;5596;46.826;8.650;2023-02-28T14:27:21;14.47;;;10.10;;
11084;SDS011;5596;46.826;8.650;2023-02-28T14:32:40;14.00;;;9.53;;
11084;SDS011;5596;46.826;8.650;2023-02-28T14:35:13;16.00;;;10.93;;
11084;SDS011;5596;46.826;8.650;2023-02-28T14:37:43;16.77;;;9.90;;
11084;SDS011;5596;46.826;8.650;2023-02-28T14:40:14;13.00;;;9.43;;
11084;SDS011;5596;46.826;8.650;2023-02-28T14:42:46;13.70;;;9.47;;
11084;SDS011;5596;46.826;8.650;2023-02-28T14:45:17;14.20;;;9.33;;
11084;SDS011;5596;46.826;8.650;2023-02-28T14:47:46;13.37;;;9.90;;
11084;SDS011;5596;46.826;8.650;2023-02-28T14:50:17;15.57;;;9.47;;
11084;SDS011;5596;46.826;8.650;2023-02-28T14:52:44;15.33;;;9.80;;
11084;SDS011;5596;46.826;8.650;2023-02-28T14:55:12;15.50;;;9.53;;
11084;SDS011;5596;46.826;8.650;2023-02-28T14:57:41;12.83;;;9.43;;
11084;SDS011;5596;46.826;8.650;2023-02-28T15:00:12;14.43;;;9.73;;
11084;SDS011;5596;46.826;8.650;2023-02-28T15:02:40;11.40;;;8.63;;
11084;SDS011;5596;46.826;8.650;2023-02-28T15:05:19;14.70;;;9.90;;
11084;SDS011;5596;46.826;8.650;2023-02-28T15:07:46;14.30;;;8.60;;
11084;SDS011;5596;46.826;8.650;2023-02-28T15:10:16;13.67;;;9.30;;
11084;SDS011;5596;46.826;8.650;2023-02-28T15:12:45;16.47;;;10.17;;
11084;SDS011;5596;46.826;8.650;2023-02-28T15:15:14;12.67;;;8.97;;
11084;SDS011;5596;46.826;8.650;2023-02-28T15:17:41;13.60;;;9.83;;
11084;SDS011;5596;46.826;8.650;2023-02-28T15:20:10;14.70;;;9.73;;
11084;SDS011;5596;46.826;8.650;2023-02-28T15:22:40;17.07;;;9.90;;
11084;SDS011;5596;46.826;8.650;2023-02-28T15:25:07;14.70;;;8.97;;
11084;SDS011;5596;46.826;8.650;2023-02-28T15:27:38;15.90;;;10.67;;
11084;SDS011;5596;46.826;8.650;2023-02-28T15:30:12;12.77;;;9.20;;
11084;SDS011;5596;46.826;8.650;2023-02-28T15:32:42;14.57;;;9.90;;
11084;SDS011;5596;46.826;8.650;2023-02-28T15:35:18;16.17;;;10.37;;
11084;SDS011;5596;46.826;8.650;2023-02-28T15:37:47;14.47;;;9.13;;